THY7CL LTFM-LRCL
Flight info
| Callsign | THY7CL |
|---|---|
| Flight time | 1h 13m |
| Altitude | 34000 |
| Route | IBLAX P727 BGS L622 GONGO DCT RONBU DCT DOKUD |
| Aircraft | A20N/M-SDE2E3FGHIRWXY/LB1 |
Departure
| Time | 2026-04-25 11:53 |
|---|---|
| Airport | İstanbul Airport (LTFM) |
Arrival
| Time | 2026-04-25 13:06 |
|---|---|
| Airport | Avram Iancu Cluj International Airport (LRCL) |
| Time | Latitude | Longitude | Altitude | Speed | Heading |
|---|---|---|---|---|---|
| 2026-04-25 10:23 | 41.27500 | 28.73579 | 300 ft | 0 kts | 359° |
| 2026-04-25 11:41 | 41.27489 | 28.73580 | 302 ft | 2 kts | 358° |
| 2026-04-25 11:41 | 41.27473 | 28.73580 | 302 ft | 2 kts | 358° |
| 2026-04-25 11:41 | 41.27456 | 28.73581 | 303 ft | 2 kts | 356° |
| 2026-04-25 11:42 | 41.27439 | 28.73583 | 302 ft | 2 kts | 353° |
| 2026-04-25 11:42 | 41.27423 | 28.73586 | 303 ft | 2 kts | 347° |
| 2026-04-25 11:42 | 41.27407 | 28.73593 | 302 ft | 2 kts | 325° |
| 2026-04-25 11:42 | 41.27398 | 28.73609 | 302 ft | 2 kts | 271° |
| 2026-04-25 11:43 | 41.27398 | 28.73615 | 302 ft | 0 kts | 268° |
| 2026-04-25 11:45 | 41.27398 | 28.73614 | 302 ft | 0 kts | 268° |
| 2026-04-25 11:45 | 41.27398 | 28.73590 | 303 ft | 5 kts | 269° |
| 2026-04-25 11:45 | 41.27397 | 28.73543 | 303 ft | 8 kts | 269° |
| 2026-04-25 11:46 | 41.27398 | 28.73437 | 302 ft | 13 kts | 272° |
| 2026-04-25 11:46 | 41.27395 | 28.73293 | 302 ft | 17 kts | 266° |
| 2026-04-25 11:46 | 41.27394 | 28.73118 | 300 ft | 21 kts | 277° |
| 2026-04-25 11:46 | 41.27353 | 28.72975 | 300 ft | 2 kts | 189° |
| 2026-04-25 11:47 | 41.27323 | 28.72978 | 302 ft | 6 kts | 177° |
| 2026-04-25 11:47 | 41.27269 | 28.72981 | 306 ft | 9 kts | 177° |
| 2026-04-25 11:47 | 41.27197 | 28.72984 | 303 ft | 12 kts | 179° |
| 2026-04-25 11:47 | 41.27130 | 28.72986 | 306 ft | 14 kts | 180° |
| 2026-04-25 11:48 | 41.27010 | 28.72988 | 308 ft | 17 kts | 179° |
| 2026-04-25 11:48 | 41.26882 | 28.72992 | 308 ft | 20 kts | 178° |
| 2026-04-25 11:48 | 41.26738 | 28.72975 | 309 ft | 22 kts | 213° |
| 2026-04-25 11:48 | 41.26720 | 28.72950 | 309 ft | 0 kts | 251° |
| 2026-04-25 11:50 | 41.26718 | 28.72938 | 309 ft | 3 kts | 253° |
| 2026-04-25 11:51 | 41.26716 | 28.72884 | 309 ft | 8 kts | 270° |
| 2026-04-25 11:51 | 41.26715 | 28.72780 | 309 ft | 13 kts | 269° |
| 2026-04-25 11:51 | 41.26713 | 28.72645 | 309 ft | 16 kts | 269° |
| 2026-04-25 11:51 | 41.26719 | 28.72537 | 308 ft | 16 kts | 297° |
| 2026-04-25 11:52 | 41.26790 | 28.72517 | 310 ft | 8 kts | 5° |
| 2026-04-25 11:52 | 41.26853 | 28.72517 | 307 ft | 31 kts | 356° |
| 2026-04-25 11:52 | 41.27756 | 28.72494 | 283 ft | 152 kts | 0° |
| 2026-04-25 11:52 | 41.28550 | 28.72470 | 538 ft | 176 kts | 0° |
| 2026-04-25 11:53 | 41.29923 | 28.72399 | 1508 ft | 194 kts | 360° |
| 2026-04-25 11:53 | 41.31259 | 28.72341 | 2469 ft | 210 kts | 360° |
| 2026-04-25 11:53 | 41.32839 | 28.72291 | 3521 ft | 229 kts | 359° |
| 2026-04-25 11:53 | 41.34435 | 28.72258 | 4569 ft | 242 kts | 359° |
| 2026-04-25 11:54 | 41.34644 | 28.72254 | 4692 ft | 243 kts | 359° |
| 2026-04-25 11:54 | 41.37250 | 28.72215 | 6355 ft | 250 kts | 359° |
| 2026-04-25 11:55 | 41.38985 | 28.72197 | 7399 ft | 253 kts | 359° |
| 2026-04-25 11:55 | 41.40966 | 28.72146 | 8609 ft | 255 kts | 356° |
| 2026-04-25 11:55 | 41.42585 | 28.71914 | 9445 ft | 266 kts | 350° |
| 2026-04-25 11:55 | 41.44448 | 28.71254 | 10083 ft | 287 kts | 338° |
| 2026-04-25 11:56 | 41.46252 | 28.69887 | 10508 ft | 312 kts | 322° |
| 2026-04-25 11:56 | 41.47874 | 28.67842 | 11079 ft | 330 kts | 312° |
| 2026-04-25 11:56 | 41.49414 | 28.65446 | 11783 ft | 340 kts | 310° |
| 2026-04-25 11:56 | 41.51111 | 28.63217 | 12550 ft | 345 kts | 323° |
| 2026-04-25 11:57 | 41.53359 | 28.61764 | 13263 ft | 350 kts | 342° |
| 2026-04-25 11:57 | 41.55798 | 28.60999 | 13557 ft | 351 kts | 344° |
| 2026-04-25 11:57 | 41.58067 | 28.59803 | 13882 ft | 352 kts | 330° |
| 2026-04-25 11:57 | 41.60061 | 28.57873 | 14184 ft | 353 kts | 316° |
| 2026-04-25 11:58 | 41.61708 | 28.55219 | 14557 ft | 354 kts | 303° |
| 2026-04-25 11:58 | 41.62975 | 28.52555 | 15036 ft | 357 kts | 302° |
| 2026-04-25 11:58 | 41.63952 | 28.50503 | 15442 ft | 359 kts | 303° |
| 2026-04-25 11:58 | 41.65350 | 28.47776 | 16014 ft | 362 kts | 307° |
| 2026-04-25 11:59 | 41.66955 | 28.45166 | 16607 ft | 366 kts | 311° |
| 2026-04-25 11:59 | 41.68757 | 28.42697 | 17211 ft | 370 kts | 315° |
| 2026-04-25 11:59 | 41.70780 | 28.40070 | 17907 ft | 374 kts | 315° |
| 2026-04-25 12:00 | 41.73797 | 28.36055 | 18970 ft | 379 kts | 314° |
| 2026-04-25 12:00 | 41.76262 | 28.32659 | 19828 ft | 383 kts | 314° |
| 2026-04-25 12:00 | 41.80027 | 28.27537 | 21177 ft | 390 kts | 319° |
| 2026-04-25 12:01 | 41.82259 | 28.25373 | 21889 ft | 392 kts | 332° |
| 2026-04-25 12:01 | 41.84796 | 28.24076 | 22605 ft | 394 kts | 348° |
| 2026-04-25 12:01 | 41.87520 | 28.23801 | 23349 ft | 395 kts | 5° |
| 2026-04-25 12:01 | 41.90158 | 28.24771 | 24027 ft | 397 kts | 23° |
| 2026-04-25 12:02 | 41.95477 | 28.27283 | 25059 ft | 405 kts | 4° |
| 2026-04-25 12:02 | 41.98304 | 28.26883 | 25557 ft | 408 kts | 339° |
| 2026-04-25 12:02 | 42.00693 | 28.24834 | 25914 ft | 415 kts | 314° |
| 2026-04-25 12:03 | 42.02292 | 28.21658 | 26356 ft | 418 kts | 299° |
| 2026-04-25 12:03 | 42.03207 | 28.19377 | 26729 ft | 420 kts | 299° |
| 2026-04-25 12:03 | 42.04744 | 28.15565 | 27337 ft | 421 kts | 300° |
| 2026-04-25 12:03 | 42.06216 | 28.12053 | 27918 ft | 422 kts | 301° |
| 2026-04-25 12:04 | 42.07853 | 28.08383 | 28537 ft | 422 kts | 303° |
| 2026-04-25 12:04 | 42.09238 | 28.05446 | 29058 ft | 422 kts | 304° |
| 2026-04-25 12:04 | 42.10679 | 28.02613 | 29538 ft | 422 kts | 307° |
| 2026-04-25 12:04 | 42.12434 | 27.99441 | 30106 ft | 422 kts | 309° |
| 2026-04-25 12:05 | 42.14208 | 27.96382 | 30574 ft | 422 kts | 310° |
| 2026-04-25 12:05 | 42.16092 | 27.93244 | 31084 ft | 422 kts | 310° |
| 2026-04-25 12:05 | 42.17919 | 27.90095 | 31556 ft | 422 kts | 308° |
| 2026-04-25 12:05 | 42.19647 | 27.86924 | 32062 ft | 422 kts | 307° |
| 2026-04-25 12:06 | 42.21256 | 27.83655 | 32766 ft | 414 kts | 304° |
| 2026-04-25 12:06 | 42.22890 | 27.80536 | 33859 ft | 398 kts | 310° |
| 2026-04-25 12:06 | 42.24777 | 27.77767 | 34123 ft | 401 kts | 320° |
| 2026-04-25 12:06 | 42.27030 | 27.75460 | 33940 ft | 413 kts | 330° |
| 2026-04-25 12:07 | 42.31013 | 27.72819 | 33974 ft | 425 kts | 340° |
| 2026-04-25 12:07 | 42.35049 | 27.71009 | 34007 ft | 429 kts | 343° |
| 2026-04-25 12:08 | 42.41072 | 27.67594 | 34110 ft | 429 kts | 329° |
| 2026-04-25 12:08 | 42.45970 | 27.62955 | 34242 ft | 430 kts | 327° |
| 2026-04-25 12:09 | 42.51085 | 27.58676 | 34104 ft | 428 kts | 333° |
| 2026-04-25 12:09 | 42.53756 | 27.56923 | 33996 ft | 427 kts | 337° |
| 2026-04-25 12:09 | 42.56524 | 27.55336 | 34006 ft | 424 kts | 336° |
| 2026-04-25 12:10 | 42.61747 | 27.51573 | 33817 ft | 429 kts | 327° |
| 2026-04-25 12:10 | 42.64078 | 27.49075 | 34140 ft | 427 kts | 319° |
| 2026-04-25 12:10 | 42.66311 | 27.46303 | 34091 ft | 430 kts | 322° |
| 2026-04-25 12:11 | 42.70303 | 27.42074 | 33883 ft | 427 kts | 324° |
| 2026-04-25 12:11 | 42.74962 | 27.37581 | 34013 ft | 427 kts | 327° |
| 2026-04-25 12:12 | 42.77348 | 27.35345 | 34128 ft | 427 kts | 327° |
| 2026-04-25 12:12 | 42.79001 | 27.33785 | 34074 ft | 427 kts | 326° |
| 2026-04-25 12:12 | 42.84521 | 27.28210 | 33949 ft | 423 kts | 324° |
| 2026-04-25 12:13 | 42.89316 | 27.23325 | 33916 ft | 426 kts | 324° |
| 2026-04-25 12:13 | 42.94016 | 27.18565 | 33895 ft | 424 kts | 325° |
| 2026-04-25 12:14 | 42.98840 | 27.13906 | 33936 ft | 424 kts | 326° |
| 2026-04-25 12:14 | 43.03684 | 27.09236 | 33903 ft | 423 kts | 326° |
| 2026-04-25 12:15 | 43.08521 | 27.04654 | 33953 ft | 423 kts | 328° |
| 2026-04-25 12:15 | 43.13703 | 27.00901 | 33933 ft | 423 kts | 340° |
| 2026-04-25 12:16 | 43.19318 | 26.98198 | 33878 ft | 420 kts | 340° |
| 2026-04-25 12:16 | 43.24660 | 26.95279 | 33928 ft | 420 kts | 337° |
| 2026-04-25 12:17 | 43.30061 | 26.92044 | 33886 ft | 420 kts | 336° |
| 2026-04-25 12:17 | 43.33537 | 26.89929 | 33909 ft | 419 kts | 337° |
| 2026-04-25 12:18 | 43.38891 | 26.86993 | 33903 ft | 419 kts | 340° |
| 2026-04-25 12:18 | 43.44422 | 26.84311 | 33905 ft | 418 kts | 340° |
| 2026-04-25 12:19 | 43.52064 | 26.79995 | 33924 ft | 417 kts | 337° |
| 2026-04-25 12:20 | 43.57383 | 26.76830 | 33955 ft | 416 kts | 336° |
| 2026-04-25 12:20 | 43.62686 | 26.73621 | 33979 ft | 416 kts | 338° |
| 2026-04-25 12:21 | 43.68113 | 26.70626 | 33920 ft | 417 kts | 339° |
| 2026-04-25 12:21 | 43.73542 | 26.67634 | 33944 ft | 417 kts | 338° |
| 2026-04-25 12:22 | 43.78920 | 26.64592 | 33905 ft | 418 kts | 338° |
| 2026-04-25 12:22 | 43.84337 | 26.61516 | 33901 ft | 418 kts | 338° |
| 2026-04-25 12:23 | 43.89611 | 26.58507 | 33913 ft | 417 kts | 338° |
| 2026-04-25 12:23 | 43.95024 | 26.55402 | 33918 ft | 417 kts | 338° |
| 2026-04-25 12:24 | 44.00056 | 26.52505 | 33923 ft | 417 kts | 337° |
| 2026-04-25 12:24 | 44.05450 | 26.49387 | 33927 ft | 416 kts | 337° |
| 2026-04-25 12:25 | 44.10835 | 26.46260 | 33926 ft | 416 kts | 337° |
| 2026-04-25 12:25 | 44.16061 | 26.43211 | 33927 ft | 416 kts | 337° |
| 2026-04-25 12:26 | 44.21326 | 26.40126 | 33931 ft | 415 kts | 337° |
| 2026-04-25 12:26 | 44.25583 | 26.37622 | 33931 ft | 415 kts | 337° |
| 2026-04-25 12:27 | 44.28538 | 26.35878 | 33931 ft | 415 kts | 337° |
| 2026-04-25 12:27 | 44.31385 | 26.34194 | 33934 ft | 415 kts | 337° |
| 2026-04-25 12:28 | 44.36235 | 26.31316 | 33934 ft | 415 kts | 336° |
| 2026-04-25 12:28 | 44.40376 | 26.28850 | 33933 ft | 415 kts | 336° |
| 2026-04-25 12:29 | 44.45379 | 26.25692 | 33934 ft | 415 kts | 334° |
| 2026-04-25 12:29 | 44.50516 | 26.21903 | 33998 ft | 413 kts | 332° |
| 2026-04-25 12:30 | 44.55301 | 26.18850 | 34002 ft | 413 kts | 339° |
| 2026-04-25 12:30 | 44.60574 | 26.15984 | 34028 ft | 413 kts | 335° |
| 2026-04-25 12:31 | 44.65010 | 26.13069 | 34012 ft | 414 kts | 334° |
| 2026-04-25 12:31 | 44.70466 | 26.09556 | 34007 ft | 414 kts | 336° |
| 2026-04-25 12:32 | 44.75727 | 26.06415 | 33987 ft | 415 kts | 337° |
| 2026-04-25 12:32 | 44.81137 | 26.03280 | 33975 ft | 415 kts | 337° |
| 2026-04-25 12:33 | 44.86333 | 26.00317 | 33889 ft | 416 kts | 336° |
| 2026-04-25 12:33 | 44.91477 | 25.96563 | 33853 ft | 412 kts | 328° |
| 2026-04-25 12:34 | 44.96658 | 25.93004 | 33964 ft | 413 kts | 338° |
| 2026-04-25 12:34 | 45.01998 | 25.90019 | 33969 ft | 412 kts | 337° |
| 2026-04-25 12:35 | 45.07321 | 25.86691 | 33929 ft | 412 kts | 335° |
| 2026-04-25 12:35 | 45.12540 | 25.83323 | 33928 ft | 412 kts | 335° |
| 2026-04-25 12:36 | 45.17788 | 25.79922 | 33902 ft | 412 kts | 334° |
| 2026-04-25 12:36 | 45.22986 | 25.76497 | 33906 ft | 411 kts | 334° |
| 2026-04-25 12:37 | 45.28185 | 25.73111 | 33967 ft | 410 kts | 334° |
| 2026-04-25 12:37 | 45.32578 | 25.70269 | 33938 ft | 411 kts | 335° |
| 2026-04-25 12:38 | 45.37314 | 25.67235 | 33946 ft | 411 kts | 335° |
| 2026-04-25 12:38 | 45.42095 | 25.64175 | 33944 ft | 411 kts | 335° |
| 2026-04-25 12:39 | 45.44776 | 25.62460 | 33956 ft | 411 kts | 335° |
| 2026-04-25 12:39 | 45.49867 | 25.59207 | 33955 ft | 411 kts | 335° |
| 2026-04-25 12:40 | 45.55130 | 25.55846 | 33965 ft | 412 kts | 335° |
| 2026-04-25 12:40 | 45.60369 | 25.52506 | 33980 ft | 412 kts | 335° |
| 2026-04-25 12:41 | 45.65572 | 25.49193 | 33986 ft | 412 kts | 335° |
| 2026-04-25 12:41 | 45.69996 | 25.46380 | 33986 ft | 412 kts | 335° |
| 2026-04-25 12:42 | 45.75249 | 25.43045 | 33969 ft | 411 kts | 335° |
| 2026-04-25 12:42 | 45.80517 | 25.39707 | 33956 ft | 410 kts | 335° |
| 2026-04-25 12:43 | 45.85742 | 25.36403 | 33931 ft | 410 kts | 335° |
| 2026-04-25 12:43 | 45.93569 | 25.31466 | 33899 ft | 409 kts | 335° |
| 2026-04-25 12:44 | 45.98806 | 25.28172 | 33884 ft | 408 kts | 335° |
| 2026-04-25 12:45 | 46.06685 | 25.23226 | 33855 ft | 408 kts | 335° |
| 2026-04-25 12:45 | 46.14403 | 25.18113 | 33866 ft | 405 kts | 331° |
| 2026-04-25 12:46 | 46.19396 | 25.14109 | 33886 ft | 404 kts | 328° |
| 2026-04-25 12:46 | 46.24134 | 25.09681 | 33903 ft | 403 kts | 324° |
| 2026-04-25 12:47 | 46.29189 | 25.05906 | 33855 ft | 408 kts | 339° |
| 2026-04-25 12:47 | 46.33853 | 25.04215 | 33540 ft | 409 kts | 343° |
| 2026-04-25 12:48 | 46.35885 | 25.03402 | 33212 ft | 407 kts | 341° |
| 2026-04-25 12:48 | 46.38573 | 25.02106 | 32391 ft | 407 kts | 337° |
| 2026-04-25 12:48 | 46.41210 | 25.00485 | 31587 ft | 405 kts | 332° |
| 2026-04-25 12:48 | 46.43505 | 24.98181 | 30818 ft | 402 kts | 313° |
| 2026-04-25 12:49 | 46.44906 | 24.94798 | 30148 ft | 404 kts | 290° |
| 2026-04-25 12:49 | 46.45336 | 24.90678 | 29795 ft | 397 kts | 278° |
| 2026-04-25 12:49 | 46.45631 | 24.86718 | 29528 ft | 383 kts | 282° |
| 2026-04-25 12:49 | 46.46139 | 24.82942 | 28648 ft | 384 kts | 286° |
| 2026-04-25 12:50 | 46.46657 | 24.79049 | 27236 ft | 402 kts | 279° |
| 2026-04-25 12:50 | 46.46769 | 24.74959 | 26412 ft | 407 kts | 270° |
| 2026-04-25 12:50 | 46.46344 | 24.70922 | 26047 ft | 400 kts | 262° |
| 2026-04-25 12:50 | 46.45848 | 24.67034 | 25806 ft | 384 kts | 267° |
| 2026-04-25 12:51 | 46.45708 | 24.63254 | 25571 ft | 368 kts | 275° |
| 2026-04-25 12:51 | 46.45926 | 24.59680 | 25355 ft | 357 kts | 282° |
| 2026-04-25 12:51 | 46.46371 | 24.56487 | 25001 ft | 361 kts | 283° |
| 2026-04-25 12:51 | 46.46721 | 24.53230 | 24391 ft | 366 kts | 279° |
| 2026-04-25 12:52 | 46.46871 | 24.50534 | 23913 ft | 368 kts | 275° |
| 2026-04-25 12:52 | 46.46860 | 24.47709 | 23380 ft | 370 kts | 270° |
| 2026-04-25 12:52 | 46.46554 | 24.43880 | 22579 ft | 373 kts | 263° |
| 2026-04-25 12:52 | 46.45938 | 24.40218 | 21835 ft | 376 kts | 256° |
| 2026-04-25 12:53 | 46.45075 | 24.36630 | 21149 ft | 375 kts | 256° |
| 2026-04-25 12:53 | 46.44487 | 24.32998 | 20604 ft | 365 kts | 267° |
| 2026-04-25 12:53 | 46.44674 | 24.29415 | 20122 ft | 352 kts | 288° |
| 2026-04-25 12:53 | 46.45782 | 24.26319 | 19697 ft | 343 kts | 306° |
| 2026-04-25 12:54 | 46.47235 | 24.23558 | 19327 ft | 335 kts | 309° |
| 2026-04-25 12:54 | 46.48820 | 24.21163 | 19135 ft | 324 kts | 319° |
| 2026-04-25 12:54 | 46.50791 | 24.19610 | 18923 ft | 318 kts | 343° |
| 2026-04-25 12:54 | 46.53004 | 24.19412 | 18483 ft | 323 kts | 2° |
| 2026-04-25 12:55 | 46.55247 | 24.20018 | 17718 ft | 331 kts | 3° |
| 2026-04-25 12:55 | 46.56754 | 24.19953 | 17141 ft | 327 kts | 342° |
| 2026-04-25 12:55 | 46.59280 | 24.17679 | 16049 ft | 330 kts | 317° |
| 2026-04-25 12:55 | 46.61083 | 24.15474 | 15206 ft | 337 kts | 321° |
| 2026-04-25 12:56 | 46.62915 | 24.13405 | 14387 ft | 344 kts | 320° |
| 2026-04-25 12:56 | 46.64792 | 24.11216 | 13581 ft | 348 kts | 321° |
| 2026-04-25 12:56 | 46.66727 | 24.09151 | 12718 ft | 351 kts | 324° |
| 2026-04-25 12:56 | 46.68839 | 24.07196 | 11863 ft | 353 kts | 328° |
| 2026-04-25 12:57 | 46.69858 | 24.06345 | 11479 ft | 353 kts | 329° |
| 2026-04-25 12:57 | 46.72109 | 24.04358 | 10593 ft | 355 kts | 326° |
| 2026-04-25 12:57 | 46.73726 | 24.02833 | 10149 ft | 351 kts | 327° |
| 2026-04-25 12:57 | 46.74740 | 24.01878 | 9935 ft | 345 kts | 324° |
| 2026-04-25 12:58 | 46.76770 | 23.99577 | 8306 ft | 365 kts | 317° |
| 2026-04-25 12:58 | 46.78586 | 23.97029 | 7878 ft | 350 kts | 313° |
| 2026-04-25 12:58 | 46.80132 | 23.94367 | 7435 ft | 329 kts | 302° |
| 2026-04-25 12:58 | 46.81002 | 23.91563 | 7023 ft | 313 kts | 284° |
| 2026-04-25 12:59 | 46.81096 | 23.88380 | 6732 ft | 300 kts | 262° |
| 2026-04-25 12:59 | 46.80659 | 23.85553 | 6976 ft | 273 kts | 257° |
| 2026-04-25 12:59 | 46.80220 | 23.82940 | 6984 ft | 256 kts | 258° |
| 2026-04-25 12:59 | 46.79837 | 23.80476 | 6970 ft | 242 kts | 259° |
| 2026-04-25 13:00 | 46.79481 | 23.78033 | 6125 ft | 260 kts | 258° |
| 2026-04-25 13:00 | 46.79332 | 23.77101 | 5744 ft | 271 kts | 258° |
| 2026-04-25 13:00 | 46.79616 | 23.72586 | 4913 ft | 274 kts | 298° |
| 2026-04-25 13:00 | 46.80921 | 23.70547 | 4494 ft | 275 kts | 327° |
| 2026-04-25 13:01 | 46.82751 | 23.69857 | 4164 ft | 277 kts | 4° |
| 2026-04-25 13:01 | 46.84486 | 23.71062 | 3787 ft | 280 kts | 46° |
| 2026-04-25 13:01 | 46.85150 | 23.73694 | 3436 ft | 277 kts | 90° |
| 2026-04-25 13:01 | 46.84681 | 23.76549 | 2917 ft | 281 kts | 109° |
| 2026-04-25 13:02 | 46.84071 | 23.79188 | 2772 ft | 272 kts | 108° |
| 2026-04-25 13:02 | 46.83416 | 23.81772 | 2750 ft | 258 kts | 118° |
| 2026-04-25 13:02 | 46.82745 | 23.83100 | 2893 ft | 239 kts | 140° |
| 2026-04-25 13:02 | 46.80832 | 23.83835 | 2933 ft | 206 kts | 201° |
| 2026-04-25 13:03 | 46.79819 | 23.82591 | 2782 ft | 181 kts | 245° |
| 2026-04-25 13:03 | 46.79563 | 23.81360 | 2655 ft | 184 kts | 264° |
| 2026-04-25 13:03 | 46.79496 | 23.79485 | 2508 ft | 180 kts | 273° |
| 2026-04-25 13:03 | 46.79621 | 23.77672 | 2057 ft | 180 kts | 278° |
| 2026-04-25 13:04 | 46.79656 | 23.75812 | 1679 ft | 175 kts | 264° |
| 2026-04-25 13:04 | 46.79358 | 23.74262 | 1649 ft | 142 kts | 252° |
| 2026-04-25 13:04 | 46.79089 | 23.72865 | 1537 ft | 138 kts | 262° |
| 2026-04-25 13:04 | 46.79140 | 23.71497 | 1400 ft | 137 kts | 284° |
| 2026-04-25 13:05 | 46.79165 | 23.70190 | 1203 ft | 132 kts | 252° |
| 2026-04-25 13:05 | 46.78839 | 23.68828 | 1036 ft | 131 kts | 255° |
| 2026-04-25 13:05 | 46.78719 | 23.68278 | 1032 ft | 118 kts | 253° |
| 2026-04-25 13:05 | 46.78583 | 23.67667 | 1033 ft | 52 kts | 251° |
| 2026-04-25 13:06 | 46.78549 | 23.67517 | 1032 ft | 0 kts | 252° |
| 2026-04-25 13:06 | 46.78546 | 23.67506 | 1032 ft | 4 kts | 252° |
| 2026-04-25 13:06 | 46.78531 | 23.67438 | 1032 ft | 9 kts | 250° |
| 2026-04-25 13:07 | 46.78501 | 23.67342 | 1033 ft | 12 kts | 244° |
| 2026-04-25 13:07 | 46.78460 | 23.67218 | 1033 ft | 15 kts | 244° |
| 2026-04-25 13:07 | 46.78413 | 23.67185 | 1033 ft | 3 kts | 135° |
| 2026-04-25 13:07 | 46.78389 | 23.67224 | 1033 ft | 8 kts | 133° |
| 2026-04-25 13:08 | 46.78343 | 23.67301 | 1033 ft | 11 kts | 117° |
| 2026-04-25 13:08 | 46.78344 | 23.67381 | 1033 ft | 13 kts | 75° |
| 2026-04-25 13:08 | 46.78365 | 23.67535 | 1033 ft | 17 kts | 78° |
| 2026-04-25 13:08 | 46.78393 | 23.67728 | 1033 ft | 21 kts | 78° |
| 2026-04-25 13:09 | 46.78427 | 23.67962 | 1033 ft | 24 kts | 77° |
| 2026-04-25 13:09 | 46.78461 | 23.68222 | 1033 ft | 27 kts | 80° |
| 2026-04-25 13:09 | 46.78496 | 23.68511 | 1033 ft | 29 kts | 79° |
| 2026-04-25 13:09 | 46.78466 | 23.68655 | 1033 ft | 8 kts | 175° |
| 2026-04-25 13:10 | 46.78417 | 23.68662 | 1033 ft | 9 kts | 165° |
| 2026-04-25 13:10 | 46.78379 | 23.68677 | 1033 ft | 0 kts | 166° |
| 2026-04-25 13:10 | 46.78371 | 23.68681 | 1033 ft | 3 kts | 160° |
| 2026-04-25 13:10 | 46.78327 | 23.68684 | 1033 ft | 7 kts | 204° |
| 2026-04-25 13:11 | 46.78312 | 23.68669 | 1033 ft | 2 kts | 214° |
| 2026-04-25 13:11 | 46.78305 | 23.68662 | 1033 ft | 2 kts | 210° |
| 2026-04-25 13:11 | 46.78293 | 23.68660 | 1033 ft | 0 kts | 184° |
| 2026-04-25 13:12 | 46.78291 | 23.68659 | 1033 ft | 0 kts | 191° |